sensor_id;sensor_type;location;lat;lon;timestamp;P1;durP1;ratioP1;P2;durP2;ratioP2
72085;SDS011;64750;52.134;5.424;2022-11-20T00:00:57;9.70;;;7.03;;
72085;SDS011;64750;52.134;5.424;2022-11-20T00:03:23;8.27;;;7.47;;
72085;SDS011;64750;52.134;5.424;2022-11-20T00:05:50;8.38;;;7.22;;
72085;SDS011;64750;52.134;5.424;2022-11-20T00:08:16;9.80;;;7.45;;
72085;SDS011;64750;52.134;5.424;2022-11-20T00:10:42;7.88;;;7.05;;
72085;SDS011;64750;52.134;5.424;2022-11-20T00:13:09;9.03;;;7.97;;
72085;SDS011;64750;52.134;5.424;2022-11-20T00:15:35;10.95;;;8.10;;
72085;SDS011;64750;52.134;5.424;2022-11-20T00:18:02;7.88;;;7.10;;
72085;SDS011;64750;52.134;5.424;2022-11-20T00:20:28;9.57;;;7.72;;
72085;SDS011;64750;52.134;5.424;2022-11-20T00:22:55;8.25;;;7.25;;
72085;SDS011;64750;52.134;5.424;2022-11-20T00:25:21;9.70;;;7.83;;
72085;SDS011;64750;52.134;5.424;2022-11-20T00:27:48;7.93;;;6.97;;
72085;SDS011;64750;52.134;5.424;2022-11-20T00:30:14;8.45;;;7.05;;
72085;SDS011;64750;52.134;5.424;2022-11-20T00:32:41;9.57;;;7.28;;
72085;SDS011;64750;52.134;5.424;2022-11-20T00:35:07;8.88;;;7.68;;
72085;SDS011;64750;52.134;5.424;2022-11-20T00:37:34;10.03;;;7.53;;
72085;SDS011;64750;52.134;5.424;2022-11-20T00:40:00;7.32;;;6.55;;
72085;SDS011;64750;52.134;5.424;2022-11-20T00:42:27;8.18;;;7.13;;
72085;SDS011;64750;52.134;5.424;2022-11-20T00:44:53;8.63;;;7.13;;
72085;SDS011;64750;52.134;5.424;2022-11-20T00:47:22;8.23;;;6.85;;
72085;SDS011;64750;52.134;5.424;2022-11-20T00:49:49;8.90;;;6.67;;
72085;SDS011;64750;52.134;5.424;2022-11-20T00:52:15;7.43;;;6.57;;
72085;SDS011;64750;52.134;5.424;2022-11-20T00:54:42;8.52;;;7.72;;
72085;SDS011;64750;52.134;5.424;2022-11-20T00:57:08;8.38;;;7.32;;
72085;SDS011;64750;52.134;5.424;2022-11-20T00:59:35;8.07;;;6.57;;
72085;SDS011;64750;52.134;5.424;2022-11-20T01:02:01;7.30;;;6.60;;
72085;SDS011;64750;52.134;5.424;2022-11-20T01:04:28;8.45;;;7.22;;
72085;SDS011;64750;52.134;5.424;2022-11-20T01:06:54;8.90;;;7.95;;
72085;SDS011;64750;52.134;5.424;2022-11-20T01:09:21;8.88;;;7.18;;
72085;SDS011;64750;52.134;5.424;2022-11-20T01:11:47;10.32;;;7.32;;
72085;SDS011;64750;52.134;5.424;2022-11-20T01:14:15;11.43;;;9.77;;
72085;SDS011;64750;52.134;5.424;2022-11-20T01:16:45;10.63;;;8.00;;
72085;SDS011;64750;52.134;5.424;2022-11-20T01:19:15;7.97;;;7.00;;
72085;SDS011;64750;52.134;5.424;2022-11-20T01:21:44;8.43;;;7.60;;
72085;SDS011;64750;52.134;5.424;2022-11-20T01:24:13;8.25;;;6.55;;
72085;SDS011;64750;52.134;5.424;2022-11-20T01:26:42;8.30;;;6.90;;
72085;SDS011;64750;52.134;5.424;2022-11-20T01:29:14;8.77;;;7.40;;
72085;SDS011;64750;52.134;5.424;2022-11-20T01:31:43;9.43;;;7.60;;
72085;SDS011;64750;52.134;5.424;2022-11-20T01:34:10;7.97;;;7.18;;
72085;SDS011;64750;52.134;5.424;2022-11-20T01:36:40;8.05;;;7.25;;
72085;SDS011;64750;52.134;5.424;2022-11-20T01:39:11;7.90;;;7.20;;
72085;SDS011;64750;52.134;5.424;2022-11-20T01:41:40;7.82;;;6.93;;
72085;SDS011;64750;52.134;5.424;2022-11-20T01:44:43;7.82;;;7.13;;
72085;SDS011;64750;52.134;5.424;2022-11-20T01:47:31;7.50;;;6.88;;
72085;SDS011;64750;52.134;5.424;2022-11-20T01:50:36;9.13;;;7.00;;
72085;SDS011;64750;52.134;5.424;2022-11-20T01:53:03;7.57;;;6.87;;
72085;SDS011;64750;52.134;5.424;2022-11-20T01:55:35;9.07;;;7.18;;
72085;SDS011;64750;52.134;5.424;2022-11-20T01:58:05;7.80;;;7.00;;
72085;SDS011;64750;52.134;5.424;2022-11-20T02:00:32;7.00;;;6.30;;
72085;SDS011;64750;52.134;5.424;2022-11-20T02:03:06;7.55;;;6.85;;
72085;SDS011;64750;52.134;5.424;2022-11-20T02:05:39;7.77;;;7.07;;
72085;SDS011;64750;52.134;5.424;2022-11-20T02:08:12;7.55;;;6.85;;
72085;SDS011;64750;52.134;5.424;2022-11-20T02:10:39;7.78;;;7.05;;
72085;SDS011;64750;52.134;5.424;2022-11-20T02:13:05;7.57;;;6.78;;
72085;SDS011;64750;52.134;5.424;2022-11-20T02:15:50;8.40;;;7.38;;
72085;SDS011;64750;52.134;5.424;2022-11-20T02:18:18;7.63;;;6.50;;
72085;SDS011;64750;52.134;5.424;2022-11-20T02:20:47;7.93;;;7.00;;
72085;SDS011;64750;52.134;5.424;2022-11-20T02:23:28;7.20;;;6.53;;
72085;SDS011;64750;52.134;5.424;2022-11-20T02:25:57;8.30;;;6.95;;
72085;SDS011;64750;52.134;5.424;2022-11-20T02:28:27;9.02;;;6.85;;
72085;SDS011;64750;52.134;5.424;2022-11-20T02:30:53;11.20;;;7.07;;
72085;SDS011;64750;52.134;5.424;2022-11-20T02:33:22;8.23;;;6.68;;
72085;SDS011;64750;52.134;5.424;2022-11-20T02:35:49;7.50;;;6.80;;
72085;SDS011;64750;52.134;5.424;2022-11-20T02:38:15;7.82;;;7.03;;
72085;SDS011;64750;52.134;5.424;2022-11-20T02:40:42;9.65;;;7.70;;
72085;SDS011;64750;52.134;5.424;2022-11-20T02:43:09;8.27;;;7.47;;
72085;SDS011;64750;52.134;5.424;2022-11-20T02:45:35;10.00;;;7.63;;
72085;SDS011;64750;52.134;5.424;2022-11-20T02:48:02;8.52;;;7.65;;
72085;SDS011;64750;52.134;5.424;2022-11-20T02:50:29;9.15;;;7.65;;
72085;SDS011;64750;52.134;5.424;2022-11-20T02:52:56;8.82;;;7.88;;
72085;SDS011;64750;52.134;5.424;2022-11-20T02:55:22;8.77;;;7.87;;
72085;SDS011;64750;52.134;5.424;2022-11-20T02:57:49;9.52;;;7.75;;
72085;SDS011;64750;52.134;5.424;2022-11-20T03:00:18;11.38;;;7.60;;
72085;SDS011;64750;52.134;5.424;2022-11-20T03:02:44;9.45;;;7.80;;
72085;SDS011;64750;52.134;5.424;2022-11-20T03:05:11;9.80;;;7.90;;
72085;SDS011;64750;52.134;5.424;2022-11-20T03:07:37;8.63;;;7.83;;
72085;SDS011;64750;52.134;5.424;2022-11-20T03:10:04;10.95;;;8.20;;
72085;SDS011;64750;52.134;5.424;2022-11-20T03:12:31;11.93;;;8.07;;
72085;SDS011;64750;52.134;5.424;2022-11-20T03:14:59;8.38;;;7.65;;
72085;SDS011;64750;52.134;5.424;2022-11-20T03:17:25;8.45;;;7.55;;
72085;SDS011;64750;52.134;5.424;2022-11-20T03:19:52;9.60;;;7.47;;
72085;SDS011;64750;52.134;5.424;2022-11-20T03:22:18;9.98;;;7.97;;
72085;SDS011;64750;52.134;5.424;2022-11-20T03:24:46;8.10;;;7.30;;
72085;SDS011;64750;52.134;5.424;2022-11-20T03:27:13;11.70;;;8.02;;
72085;SDS011;64750;52.134;5.424;2022-11-20T03:29:39;10.68;;;8.35;;
72085;SDS011;64750;52.134;5.424;2022-11-20T03:32:09;8.33;;;7.50;;
72085;SDS011;64750;52.134;5.424;2022-11-20T03:34:35;8.45;;;7.18;;
72085;SDS011;64750;52.134;5.424;2022-11-20T03:37:02;8.55;;;7.70;;
72085;SDS011;64750;52.134;5.424;2022-11-20T03:39:28;9.48;;;7.55;;
72085;SDS011;64750;52.134;5.424;2022-11-20T03:41:55;9.35;;;7.93;;
72085;SDS011;64750;52.134;5.424;2022-11-20T03:44:21;10.37;;;7.37;;
72085;SDS011;64750;52.134;5.424;2022-11-20T03:46:48;8.80;;;7.97;;
72085;SDS011;64750;52.134;5.424;2022-11-20T03:49:14;8.45;;;7.35;;
72085;SDS011;64750;52.134;5.424;2022-11-20T03:51:43;10.13;;;7.70;;
72085;SDS011;64750;52.134;5.424;2022-11-20T03:54:10;9.63;;;7.88;;
72085;SDS011;64750;52.134;5.424;2022-11-20T03:56:37;8.67;;;7.53;;
72085;SDS011;64750;52.134;5.424;2022-11-20T03:59:05;7.70;;;6.95;;
72085;SDS011;64750;52.134;5.424;2022-11-20T04:01:33;10.95;;;7.45;;
72085;SDS011;64750;52.134;5.424;2022-11-20T04:04:02;8.70;;;7.00;;
72085;SDS011;64750;52.134;5.424;2022-11-20T04:06:29;8.88;;;7.97;;
72085;SDS011;64750;52.134;5.424;2022-11-20T04:08:59;8.27;;;7.47;;
72085;SDS011;64750;52.134;5.424;2022-11-20T04:11:27;8.45;;;7.65;;
72085;SDS011;64750;52.134;5.424;2022-11-20T04:13:57;8.93;;;7.60;;
72085;SDS011;64750;52.134;5.424;2022-11-20T04:16:26;7.30;;;6.65;;
72085;SDS011;64750;52.134;5.424;2022-11-20T04:18:55;11.27;;;7.95;;
72085;SDS011;64750;52.134;5.424;2022-11-20T04:21:23;11.30;;;7.60;;
72085;SDS011;64750;52.134;5.424;2022-11-20T04:23:53;8.38;;;7.50;;
72085;SDS011;64750;52.134;5.424;2022-11-20T04:26:20;8.43;;;7.28;;
72085;SDS011;64750;52.134;5.424;2022-11-20T04:28:49;10.38;;;7.53;;
72085;SDS011;64750;52.134;5.424;2022-11-20T04:31:17;8.85;;;7.95;;
72085;SDS011;64750;52.134;5.424;2022-11-20T04:33:45;8.27;;;7.00;;
72085;SDS011;64750;52.134;5.424;2022-11-20T04:36:13;8.32;;;7.45;;
72085;SDS011;64750;52.134;5.424;2022-11-20T04:38:41;8.75;;;7.82;;
72085;SDS011;64750;52.134;5.424;2022-11-20T04:41:12;11.13;;;7.13;;
72085;SDS011;64750;52.134;5.424;2022-11-20T04:43:45;8.93;;;7.20;;
72085;SDS011;64750;52.134;5.424;2022-11-20T04:46:14;8.80;;;7.90;;
72085;SDS011;64750;52.134;5.424;2022-11-20T04:48:41;11.43;;;7.72;;
72085;SDS011;64750;52.134;5.424;2022-11-20T04:51:07;7.70;;;6.90;;
72085;SDS011;64750;52.134;5.424;2022-11-20T04:53:34;11.45;;;7.40;;
72085;SDS011;64750;52.134;5.424;2022-11-20T04:56:00;9.75;;;7.53;;
72085;SDS011;64750;52.134;5.424;2022-11-20T04:58:28;8.33;;;7.03;;
72085;SDS011;64750;52.134;5.424;2022-11-20T05:01:02;7.78;;;6.72;;
72085;SDS011;64750;52.134;5.424;2022-11-20T05:03:34;9.48;;;7.45;;
72085;SDS011;64750;52.134;5.424;2022-11-20T05:06:07;7.45;;;6.70;;
72085;SDS011;64750;52.134;5.424;2022-11-20T05:08:35;8.50;;;7.30;;
72085;SDS011;64750;52.134;5.424;2022-11-20T05:11:08;7.37;;;6.77;;
72085;SDS011;64750;52.134;5.424;2022-11-20T05:13:37;9.27;;;6.95;;
72085;SDS011;64750;52.134;5.424;2022-11-20T05:16:09;7.13;;;6.53;;
72085;SDS011;64750;52.134;5.424;2022-11-20T05:18:37;9.40;;;6.88;;
72085;SDS011;64750;52.134;5.424;2022-11-20T05:21:07;8.15;;;6.97;;
72085;SDS011;64750;52.134;5.424;2022-11-20T05:23:35;7.27;;;6.57;;
72085;SDS011;64750;52.134;5.424;2022-11-20T05:26:02;7.88;;;7.07;;
72085;SDS011;64750;52.134;5.424;2022-11-20T05:28:29;6.97;;;6.35;;
72085;SDS011;64750;52.134;5.424;2022-11-20T05:31:03;8.02;;;7.32;;
72085;SDS011;64750;52.134;5.424;2022-11-20T05:33:41;8.55;;;7.25;;
72085;SDS011;64750;52.134;5.424;2022-11-20T05:36:09;7.50;;;6.67;;
72085;SDS011;64750;52.134;5.424;2022-11-20T05:38:36;7.30;;;6.60;;
72085;SDS011;64750;52.134;5.424;2022-11-20T05:41:13;7.80;;;6.65;;
72085;SDS011;64750;52.134;5.424;2022-11-20T05:43:42;7.57;;;6.60;;
72085;SDS011;64750;52.134;5.424;2022-11-20T05:46:11;7.75;;;6.97;;
72085;SDS011;64750;52.134;5.424;2022-11-20T05:48:39;7.10;;;6.40;;
72085;SDS011;64750;52.134;5.424;2022-11-20T05:51:10;7.93;;;6.18;;
72085;SDS011;64750;52.134;5.424;2022-11-20T05:53:38;9.32;;;7.30;;
72085;SDS011;64750;52.134;5.424;2022-11-20T05:56:13;6.95;;;6.35;;
72085;SDS011;64750;52.134;5.424;2022-11-20T05:58:41;7.40;;;6.70;;
72085;SDS011;64750;52.134;5.424;2022-11-20T06:01:10;6.83;;;6.17;;
72085;SDS011;64750;52.134;5.424;2022-11-20T06:03:41;8.80;;;6.82;;
72085;SDS011;64750;52.134;5.424;2022-11-20T06:06:09;7.70;;;6.85;;
72085;SDS011;64750;52.134;5.424;2022-11-20T06:08:38;7.78;;;6.68;;
72085;SDS011;64750;52.134;5.424;2022-11-20T06:11:05;7.65;;;6.95;;
72085;SDS011;64750;52.134;5.424;2022-11-20T06:13:33;6.43;;;5.83;;
72085;SDS011;64750;52.134;5.424;2022-11-20T06:16:07;8.05;;;6.50;;
72085;SDS011;64750;52.134;5.424;2022-11-20T06:18:33;7.55;;;6.57;;
72085;SDS011;64750;52.134;5.424;2022-11-20T06:21:04;7.28;;;6.57;;
72085;SDS011;64750;52.134;5.424;2022-11-20T06:23:38;7.18;;;6.47;;
72085;SDS011;64750;52.134;5.424;2022-11-20T06:26:09;9.27;;;6.60;;
72085;SDS011;64750;52.134;5.424;2022-11-20T06:28:37;7.22;;;5.88;;
72085;SDS011;64750;52.134;5.424;2022-11-20T06:31:05;7.80;;;7.00;;
72085;SDS011;64750;52.134;5.424;2022-11-20T06:33:33;7.90;;;7.10;;
72085;SDS011;64750;52.134;5.424;2022-11-20T06:36:00;7.53;;;6.70;;
72085;SDS011;64750;52.134;5.424;2022-11-20T06:38:34;7.23;;;6.50;;
72085;SDS011;64750;52.134;5.424;2022-11-20T06:41:00;6.68;;;5.82;;
72085;SDS011;64750;52.134;5.424;2022-11-20T06:43:28;7.68;;;6.40;;
72085;SDS011;64750;52.134;5.424;2022-11-20T06:45:58;6.85;;;6.15;;
72085;SDS011;64750;52.134;5.424;2022-11-20T06:48:28;7.53;;;6.78;;
72085;SDS011;64750;52.134;5.424;2022-11-20T06:50:58;8.60;;;6.27;;
72085;SDS011;64750;52.134;5.424;2022-11-20T06:53:25;8.90;;;6.38;;
72085;SDS011;64750;52.134;5.424;2022-11-20T06:55:51;8.95;;;6.45;;
72085;SDS011;64750;52.134;5.424;2022-11-20T06:58:21;7.30;;;6.60;;
72085;SDS011;64750;52.134;5.424;2022-11-20T07:00:48;7.78;;;6.97;;
72085;SDS011;64750;52.134;5.424;2022-11-20T07:03:14;7.80;;;6.90;;
72085;SDS011;64750;52.134;5.424;2022-11-20T07:05:41;7.88;;;7.10;;
72085;SDS011;64750;52.134;5.424;2022-11-20T07:08:07;8.05;;;7.25;;
72085;SDS011;64750;52.134;5.424;2022-11-20T07:10:34;9.20;;;7.35;;
72085;SDS011;64750;52.134;5.424;2022-11-20T07:13:01;8.55;;;7.13;;
72085;SDS011;64750;52.134;5.424;2022-11-20T07:15:30;9.90;;;7.10;;
72085;SDS011;64750;52.134;5.424;2022-11-20T07:18:00;7.18;;;6.55;;
72085;SDS011;64750;52.134;5.424;2022-11-20T07:20:32;7.70;;;6.90;;
72085;SDS011;64750;52.134;5.424;2022-11-20T07:22:58;8.23;;;6.90;;
72085;SDS011;64750;52.134;5.424;2022-11-20T07:25:25;7.30;;;6.43;;
72085;SDS011;64750;52.134;5.424;2022-11-20T07:27:59;7.73;;;7.00;;
72085;SDS011;64750;52.134;5.424;2022-11-20T07:30:27;7.25;;;6.55;;
72085;SDS011;64750;52.134;5.424;2022-11-20T07:32:54;8.68;;;6.97;;
72085;SDS011;64750;52.134;5.424;2022-11-20T07:35:24;7.10;;;6.38;;
72085;SDS011;64750;52.134;5.424;2022-11-20T07:37:51;8.60;;;6.95;;
72085;SDS011;64750;52.134;5.424;2022-11-20T07:40:18;7.27;;;6.57;;
72085;SDS011;64750;52.134;5.424;2022-11-20T07:42:52;7.75;;;6.75;;
72085;SDS011;64750;52.134;5.424;2022-11-20T07:45:21;8.50;;;6.65;;
72085;SDS011;64750;52.134;5.424;2022-11-20T07:47:49;8.02;;;7.07;;
72085;SDS011;64750;52.134;5.424;2022-11-20T07:50:16;7.97;;;7.00;;
72085;SDS011;64750;52.134;5.424;2022-11-20T07:52:43;9.03;;;6.77;;
72085;SDS011;64750;52.134;5.424;2022-11-20T07:55:09;8.30;;;7.50;;
72085;SDS011;64750;52.134;5.424;2022-11-20T07:57:36;9.93;;;7.60;;
72085;SDS011;64750;52.134;5.424;2022-11-20T08:00:06;7.60;;;6.30;;
72085;SDS011;64750;52.134;5.424;2022-11-20T08:02:39;9.60;;;7.43;;
72085;SDS011;64750;52.134;5.424;2022-11-20T08:05:06;7.00;;;6.37;;
72085;SDS011;64750;52.134;5.424;2022-11-20T08:07:37;8.98;;;6.65;;
72085;SDS011;64750;52.134;5.424;2022-11-20T08:10:08;8.18;;;6.97;;
72085;SDS011;64750;52.134;5.424;2022-11-20T08:12:43;16.08;;;8.18;;
72085;SDS011;64750;52.134;5.424;2022-11-20T08:15:28;8.40;;;7.43;;
72085;SDS011;64750;52.134;5.424;2022-11-20T08:17:59;8.87;;;7.63;;
72085;SDS011;64750;52.134;5.424;2022-11-20T08:20:46;8.95;;;7.43;;
72085;SDS011;64750;52.134;5.424;2022-11-20T08:23:15;8.57;;;7.13;;
72085;SDS011;64750;52.134;5.424;2022-11-20T08:25:42;7.88;;;7.07;;
72085;SDS011;64750;52.134;5.424;2022-11-20T08:28:11;8.05;;;7.25;;
72085;SDS011;64750;52.134;5.424;2022-11-20T08:30:46;8.13;;;7.33;;
72085;SDS011;64750;52.134;5.424;2022-11-20T08:33:16;8.02;;;7.22;;
72085;SDS011;64750;52.134;5.424;2022-11-20T08:35:43;8.10;;;7.25;;
72085;SDS011;64750;52.134;5.424;2022-11-20T08:38:10;7.43;;;6.65;;
72085;SDS011;64750;52.134;5.424;2022-11-20T08:40:39;11.65;;;7.65;;
72085;SDS011;64750;52.134;5.424;2022-11-20T08:43:09;9.63;;;7.23;;
72085;SDS011;64750;52.134;5.424;2022-11-20T08:45:35;8.60;;;7.65;;
72085;SDS011;64750;52.134;5.424;2022-11-20T08:48:02;9.95;;;7.72;;
72085;SDS011;64750;52.134;5.424;2022-11-20T08:50:34;9.30;;;7.63;;
72085;SDS011;64750;52.134;5.424;2022-11-20T08:53:04;8.98;;;7.93;;
72085;SDS011;64750;52.134;5.424;2022-11-20T08:55:31;10.67;;;8.20;;
72085;SDS011;64750;52.134;5.424;2022-11-20T08:57:57;10.23;;;8.18;;
72085;SDS011;64750;52.134;5.424;2022-11-20T09:00:24;10.48;;;8.15;;
72085;SDS011;64750;52.134;5.424;2022-11-20T09:02:50;13.63;;;8.07;;
72085;SDS011;64750;52.134;5.424;2022-11-20T09:05:20;8.80;;;7.90;;
72085;SDS011;64750;52.134;5.424;2022-11-20T09:07:46;16.67;;;8.43;;
72085;SDS011;64750;52.134;5.424;2022-11-20T09:10:13;11.20;;;8.48;;
72085;SDS011;64750;52.134;5.424;2022-11-20T09:12:49;10.45;;;8.48;;
72085;SDS011;64750;52.134;5.424;2022-11-20T09:15:16;12.07;;;8.05;;
72085;SDS011;64750;52.134;5.424;2022-11-20T09:17:50;10.38;;;8.23;;
72085;SDS011;64750;52.134;5.424;2022-11-20T09:20:22;11.33;;;8.00;;
72085;SDS011;64750;52.134;5.424;2022-11-20T09:22:56;9.50;;;7.38;;
72085;SDS011;64750;52.134;5.424;2022-11-20T09:25:26;8.98;;;7.97;;
72085;SDS011;64750;52.134;5.424;2022-11-20T09:27:55;8.70;;;7.68;;
72085;SDS011;64750;52.134;5.424;2022-11-20T09:30:25;8.55;;;7.63;;
72085;SDS011;64750;52.134;5.424;2022-11-20T09:32:53;9.10;;;7.83;;
72085;SDS011;64750;52.134;5.424;2022-11-20T09:35:20;11.20;;;8.35;;
72085;SDS011;64750;52.134;5.424;2022-11-20T09:37:49;10.25;;;8.15;;
72085;SDS011;64750;52.134;5.424;2022-11-20T09:40:19;9.60;;;8.38;;
72085;SDS011;64750;52.134;5.424;2022-11-20T09:50:57;8.85;;;7.57;;
72085;SDS011;64750;52.134;5.424;2022-11-20T09:56:24;10.05;;;7.78;;
72085;SDS011;64750;52.134;5.424;2022-11-20T09:58:52;8.63;;;7.73;;
72085;SDS011;64750;52.134;5.424;2022-11-20T10:01:26;13.30;;;8.38;;
72085;SDS011;64750;52.134;5.424;2022-11-20T10:06:37;9.35;;;8.10;;
72085;SDS011;64750;52.134;5.424;2022-11-20T10:20:27;9.32;;;7.88;;
72085;SDS011;64750;52.134;5.424;2022-11-20T10:23:30;9.95;;;8.55;;
72085;SDS011;64750;52.134;5.424;2022-11-20T10:26:21;10.30;;;8.17;;
72085;SDS011;64750;52.134;5.424;2022-11-20T10:31:44;9.25;;;7.95;;
72085;SDS011;64750;52.134;5.424;2022-11-20T10:34:18;14.32;;;8.32;;
72085;SDS011;64750;52.134;5.424;2022-11-20T10:36:54;9.20;;;8.30;;
72085;SDS011;64750;52.134;5.424;2022-11-20T10:39:32;7.80;;;7.10;;
72085;SDS011;64750;52.134;5.424;2022-11-20T10:42:04;9.23;;;8.32;;
72085;SDS011;64750;52.134;5.424;2022-11-20T10:44:40;12.25;;;8.88;;
72085;SDS011;64750;52.134;5.424;2022-11-20T10:47:31;10.38;;;8.90;;
72085;SDS011;64750;52.134;5.424;2022-11-20T10:50:02;10.32;;;8.52;;
72085;SDS011;64750;52.134;5.424;2022-11-20T11:00:48;11.80;;;8.95;;
72085;SDS011;64750;52.134;5.424;2022-11-20T11:08:36;12.13;;;9.10;;
72085;SDS011;64750;52.134;5.424;2022-11-20T11:11:23;10.30;;;8.25;;
72085;SDS011;64750;52.134;5.424;2022-11-20T11:14:07;11.15;;;8.80;;
72085;SDS011;64750;52.134;5.424;2022-11-20T11:16:49;10.63;;;8.68;;
72085;SDS011;64750;52.134;5.424;2022-11-20T11:19:25;11.70;;;8.80;;
72085;SDS011;64750;52.134;5.424;2022-11-20T11:21:53;12.45;;;9.27;;
72085;SDS011;64750;52.134;5.424;2022-11-20T11:24:25;14.15;;;9.30;;
72085;SDS011;64750;52.134;5.424;2022-11-20T11:27:14;11.18;;;9.00;;
72085;SDS011;64750;52.134;5.424;2022-11-20T11:29:44;13.70;;;8.65;;
72085;SDS011;64750;52.134;5.424;2022-11-20T11:35:01;12.75;;;9.32;;
72085;SDS011;64750;52.134;5.424;2022-11-20T11:37:33;12.25;;;8.98;;
72085;SDS011;64750;52.134;5.424;2022-11-20T11:40:04;14.30;;;9.93;;
72085;SDS011;64750;52.134;5.424;2022-11-20T11:42:57;14.50;;;11.32;;
72085;SDS011;64750;52.134;5.424;2022-11-20T11:45:30;13.10;;;10.23;;
72085;SDS011;64750;52.134;5.424;2022-11-20T11:47:57;16.33;;;9.68;;
72085;SDS011;64750;52.134;5.424;2022-11-20T11:50:28;12.13;;;9.70;;
72085;SDS011;64750;52.134;5.424;2022-11-20T11:56:04;14.45;;;10.00;;
72085;SDS011;64750;52.134;5.424;2022-11-20T11:59:11;14.67;;;9.70;;
72085;SDS011;64750;52.134;5.424;2022-11-20T12:01:38;14.82;;;9.93;;
72085;SDS011;64750;52.134;5.424;2022-11-20T12:07:00;12.45;;;10.07;;
72085;SDS011;64750;52.134;5.424;2022-11-20T12:09:53;16.20;;;10.43;;
72085;SDS011;64750;52.134;5.424;2022-11-20T12:15:30;14.90;;;10.38;;
72085;SDS011;64750;52.134;5.424;2022-11-20T12:18:07;15.57;;;10.52;;
72085;SDS011;64750;52.134;5.424;2022-11-20T12:20:43;17.02;;;10.90;;
72085;SDS011;64750;52.134;5.424;2022-11-20T12:23:26;16.05;;;10.32;;
72085;SDS011;64750;52.134;5.424;2022-11-20T12:26:03;13.93;;;10.23;;
72085;SDS011;64750;52.134;5.424;2022-11-20T12:28:44;15.30;;;10.38;;
72085;SDS011;64750;52.134;5.424;2022-11-20T12:31:30;13.90;;;9.23;;
72085;SDS011;64750;52.134;5.424;2022-11-20T12:39:49;15.03;;;10.67;;
72085;SDS011;64750;52.134;5.424;2022-11-20T12:59:02;15.73;;;10.40;;
72085;SDS011;64750;52.134;5.424;2022-11-20T13:01:40;17.23;;;9.88;;
72085;SDS011;64750;52.134;5.424;2022-11-20T13:07:22;12.67;;;10.10;;
72085;SDS011;64750;52.134;5.424;2022-11-20T13:09:54;15.32;;;10.60;;
72085;SDS011;64750;52.134;5.424;2022-11-20T13:12:25;16.90;;;10.52;;
72085;SDS011;64750;52.134;5.424;2022-11-20T13:20:27;14.87;;;10.93;;
72085;SDS011;64750;52.134;5.424;2022-11-20T13:22:59;15.00;;;10.63;;
72085;SDS011;64750;52.134;5.424;2022-11-20T13:25:27;14.73;;;10.40;;
72085;SDS011;64750;52.134;5.424;2022-11-20T13:27:54;14.57;;;10.68;;
72085;SDS011;64750;52.134;5.424;2022-11-20T13:30:26;14.07;;;10.77;;
72085;SDS011;64750;52.134;5.424;2022-11-20T13:33:04;15.33;;;10.30;;
72085;SDS011;64750;52.134;5.424;2022-11-20T13:35:35;13.77;;;9.70;;
72085;SDS011;64750;52.134;5.424;2022-11-20T13:38:07;13.68;;;10.65;;
72085;SDS011;64750;52.134;5.424;2022-11-20T13:41:00;14.20;;;10.65;;
72085;SDS011;64750;52.134;5.424;2022-11-20T13:43:47;16.15;;;11.00;;
72085;SDS011;64750;52.134;5.424;2022-11-20T13:46:14;15.93;;;10.83;;
72085;SDS011;64750;52.134;5.424;2022-11-20T13:48:45;17.15;;;11.32;;
72085;SDS011;64750;52.134;5.424;2022-11-20T13:53:57;19.00;;;11.27;;
72085;SDS011;64750;52.134;5.424;2022-11-20T14:02:02;15.05;;;9.98;;
72085;SDS011;64750;52.134;5.424;2022-11-20T14:04:35;17.15;;;10.77;;
72085;SDS011;64750;52.134;5.424;2022-11-20T14:07:07;16.25;;;10.48;;
72085;SDS011;64750;52.134;5.424;2022-11-20T14:09:35;13.50;;;10.80;;
72085;SDS011;64750;52.134;5.424;2022-11-20T14:12:02;16.67;;;10.70;;
72085;SDS011;64750;52.134;5.424;2022-11-20T14:14:35;14.38;;;9.82;;
72085;SDS011;64750;52.134;5.424;2022-11-20T14:17:17;14.82;;;9.93;;
72085;SDS011;64750;52.134;5.424;2022-11-20T14:19:50;15.07;;;9.90;;
72085;SDS011;64750;52.134;5.424;2022-11-20T14:22:21;15.02;;;10.10;;
72085;SDS011;64750;52.134;5.424;2022-11-20T14:27:55;21.33;;;10.30;;
72085;SDS011;64750;52.134;5.424;2022-11-20T14:30:27;16.15;;;11.02;;
72085;SDS011;64750;52.134;5.424;2022-11-20T14:33:02;14.35;;;10.40;;
72085;SDS011;64750;52.134;5.424;2022-11-20T14:35:36;18.77;;;11.00;;
72085;SDS011;64750;52.134;5.424;2022-11-20T14:38:09;18.00;;;11.53;;
72085;SDS011;64750;52.134;5.424;2022-11-20T14:40:40;11.95;;;9.38;;
72085;SDS011;64750;52.134;5.424;2022-11-20T14:43:24;16.08;;;10.48;;
72085;SDS011;64750;52.134;5.424;2022-11-20T14:45:59;18.02;;;10.80;;
72085;SDS011;64750;52.134;5.424;2022-11-20T14:48:32;12.63;;;9.95;;
72085;SDS011;64750;52.134;5.424;2022-11-20T14:51:05;17.93;;;11.30;;
72085;SDS011;64750;52.134;5.424;2022-11-20T14:53:32;18.08;;;10.82;;
72085;SDS011;64750;52.134;5.424;2022-11-20T14:56:01;14.50;;;11.00;;
72085;SDS011;64750;52.134;5.424;2022-11-20T14:58:29;16.92;;;11.30;;
72085;SDS011;64750;52.134;5.424;2022-11-20T15:01:06;17.20;;;11.50;;
72085;SDS011;64750;52.134;5.424;2022-11-20T15:03:40;21.17;;;12.23;;
72085;SDS011;64750;52.134;5.424;2022-11-20T15:06:10;17.83;;;12.02;;
72085;SDS011;64750;52.134;5.424;2022-11-20T15:08:49;16.90;;;10.93;;
72085;SDS011;64750;52.134;5.424;2022-11-20T15:11:17;16.48;;;11.98;;
72085;SDS011;64750;52.134;5.424;2022-11-20T15:13:47;16.48;;;11.23;;
72085;SDS011;64750;52.134;5.424;2022-11-20T15:16:17;19.63;;;12.13;;
72085;SDS011;64750;52.134;5.424;2022-11-20T15:18:46;16.52;;;11.02;;
72085;SDS011;64750;52.134;5.424;2022-11-20T15:21:14;16.80;;;11.27;;
72085;SDS011;64750;52.134;5.424;2022-11-20T15:23:45;15.77;;;11.23;;
72085;SDS011;64750;52.134;5.424;2022-11-20T15:26:12;17.92;;;11.25;;
72085;SDS011;64750;52.134;5.424;2022-11-20T15:28:46;17.47;;;11.00;;
72085;SDS011;64750;52.134;5.424;2022-11-20T15:31:17;17.95;;;11.25;;
72085;SDS011;64750;52.134;5.424;2022-11-20T15:33:49;15.63;;;11.80;;
72085;SDS011;64750;52.134;5.424;2022-11-20T15:36:16;16.75;;;10.90;;
72085;SDS011;64750;52.134;5.424;2022-11-20T15:38:42;13.13;;;10.35;;
72085;SDS011;64750;52.134;5.424;2022-11-20T15:41:08;17.13;;;11.00;;
72085;SDS011;64750;52.134;5.424;2022-11-20T15:43:37;15.18;;;10.95;;
72085;SDS011;64750;52.134;5.424;2022-11-20T15:46:05;14.05;;;10.25;;
72085;SDS011;64750;52.134;5.424;2022-11-20T15:48:37;16.52;;;10.95;;
72085;SDS011;64750;52.134;5.424;2022-11-20T15:51:35;14.68;;;11.20;;
72085;SDS011;64750;52.134;5.424;2022-11-20T15:54:33;17.57;;;11.33;;
72085;SDS011;64750;52.134;5.424;2022-11-20T15:57:00;14.35;;;10.35;;
72085;SDS011;64750;52.134;5.424;2022-11-20T15:59:28;14.63;;;10.77;;
72085;SDS011;64750;52.134;5.424;2022-11-20T16:01:54;15.48;;;11.32;;
72085;SDS011;64750;52.134;5.424;2022-11-20T16:04:22;16.73;;;11.45;;
72085;SDS011;64750;52.134;5.424;2022-11-20T16:06:51;23.93;;;10.80;;
72085;SDS011;64750;52.134;5.424;2022-11-20T16:09:18;15.95;;;10.57;;
72085;SDS011;64750;52.134;5.424;2022-11-20T16:11:44;18.13;;;11.25;;
72085;SDS011;64750;52.134;5.424;2022-11-20T16:14:16;17.65;;;10.57;;
72085;SDS011;64750;52.134;5.424;2022-11-20T16:17:02;17.95;;;10.75;;
72085;SDS011;64750;52.134;5.424;2022-11-20T16:19:28;15.60;;;11.23;;
72085;SDS011;64750;52.134;5.424;2022-11-20T16:21:56;15.05;;;10.80;;
72085;SDS011;64750;52.134;5.424;2022-11-20T16:24:28;15.13;;;11.23;;
72085;SDS011;64750;52.134;5.424;2022-11-20T16:26:55;15.10;;;11.50;;
72085;SDS011;64750;52.134;5.424;2022-11-20T16:29:22;17.15;;;11.82;;
72085;SDS011;64750;52.134;5.424;2022-11-20T16:31:48;15.47;;;10.87;;
72085;SDS011;64750;52.134;5.424;2022-11-20T16:34:18;15.95;;;11.00;;